sensor_id;sensor_type;location;lat;lon;timestamp;P1;durP1;ratioP1;P2;durP2;ratioP2
45296;SDS011;31040;51.622;10.420;2024-02-15T00:00:19;20.70;;;16.33;;
45296;SDS011;31040;51.622;10.420;2024-02-15T00:02:48;17.45;;;15.27;;
45296;SDS011;31040;51.622;10.420;2024-02-15T00:05:15;17.45;;;14.27;;
45296;SDS011;31040;51.622;10.420;2024-02-15T00:07:43;18.80;;;14.93;;
45296;SDS011;31040;51.622;10.420;2024-02-15T00:10:11;18.17;;;13.32;;
45296;SDS011;31040;51.622;10.420;2024-02-15T00:12:38;16.60;;;13.35;;
45296;SDS011;31040;51.622;10.420;2024-02-15T00:15:06;16.85;;;14.15;;
45296;SDS011;31040;51.622;10.420;2024-02-15T00:17:33;16.13;;;13.18;;
45296;SDS011;31040;51.622;10.420;2024-02-15T00:20:03;16.00;;;12.60;;
45296;SDS011;31040;51.622;10.420;2024-02-15T00:22:36;14.80;;;12.68;;
45296;SDS011;31040;51.622;10.420;2024-02-15T00:25:04;13.68;;;12.02;;
45296;SDS011;31040;51.622;10.420;2024-02-15T00:27:32;14.90;;;12.07;;
45296;SDS011;31040;51.622;10.420;2024-02-15T00:30:01;15.45;;;12.15;;
45296;SDS011;31040;51.622;10.420;2024-02-15T00:32:29;14.45;;;12.15;;
45296;SDS011;31040;51.622;10.420;2024-02-15T00:34:57;14.50;;;12.10;;
45296;SDS011;31040;51.622;10.420;2024-02-15T00:37:25;14.40;;;12.90;;
45296;SDS011;31040;51.622;10.420;2024-02-15T00:39:52;16.13;;;11.95;;
45296;SDS011;31040;51.622;10.420;2024-02-15T00:42:19;15.30;;;11.55;;
45296;SDS011;31040;51.622;10.420;2024-02-15T00:44:47;14.27;;;11.38;;
45296;SDS011;31040;51.622;10.420;2024-02-15T00:47:14;16.80;;;12.20;;
45296;SDS011;31040;51.622;10.420;2024-02-15T00:49:44;14.02;;;11.68;;
45296;SDS011;31040;51.622;10.420;2024-02-15T00:52:12;14.52;;;11.88;;
45296;SDS011;31040;51.622;10.420;2024-02-15T00:54:39;14.82;;;11.07;;
45296;SDS011;31040;51.622;10.420;2024-02-15T00:57:07;15.07;;;10.80;;
45296;SDS011;31040;51.622;10.420;2024-02-15T00:59:35;12.88;;;11.45;;
45296;SDS011;31040;51.622;10.420;2024-02-15T01:02:02;12.20;;;10.07;;
45296;SDS011;31040;51.622;10.420;2024-02-15T01:04:30;14.13;;;11.38;;
45296;SDS011;31040;51.622;10.420;2024-02-15T01:06:57;12.90;;;11.00;;
45296;SDS011;31040;51.622;10.420;2024-02-15T01:09:25;13.25;;;10.00;;
45296;SDS011;31040;51.622;10.420;2024-02-15T01:11:52;14.20;;;10.35;;
45296;SDS011;31040;51.622;10.420;2024-02-15T01:14:21;14.70;;;10.93;;
45296;SDS011;31040;51.622;10.420;2024-02-15T01:16:48;14.15;;;10.60;;
45296;SDS011;31040;51.622;10.420;2024-02-15T01:19:15;13.98;;;11.25;;
45296;SDS011;31040;51.622;10.420;2024-02-15T01:21:43;14.77;;;10.20;;
45296;SDS011;31040;51.622;10.420;2024-02-15T01:24:13;11.82;;;8.52;;
45296;SDS011;31040;51.622;10.420;2024-02-15T01:26:40;16.30;;;10.30;;
45296;SDS011;31040;51.622;10.420;2024-02-15T01:29:08;12.55;;;9.75;;
45296;SDS011;31040;51.622;10.420;2024-02-15T01:31:38;15.75;;;10.73;;
45296;SDS011;31040;51.622;10.420;2024-02-15T01:34:06;11.60;;;9.32;;
45296;SDS011;31040;51.622;10.420;2024-02-15T01:36:33;11.93;;;9.07;;
45296;SDS011;31040;51.622;10.420;2024-02-15T01:39:01;14.25;;;10.80;;
45296;SDS011;31040;51.622;10.420;2024-02-15T01:41:28;15.25;;;9.77;;
45296;SDS011;31040;51.622;10.420;2024-02-15T01:43:56;12.98;;;10.20;;
45296;SDS011;31040;51.622;10.420;2024-02-15T01:46:23;13.80;;;9.85;;
45296;SDS011;31040;51.622;10.420;2024-02-15T01:48:51;15.63;;;10.60;;
45296;SDS011;31040;51.622;10.420;2024-02-15T01:51:19;12.88;;;9.38;;
45296;SDS011;31040;51.622;10.420;2024-02-15T01:53:46;11.30;;;8.90;;
45296;SDS011;31040;51.622;10.420;2024-02-15T01:56:14;13.45;;;9.75;;
45296;SDS011;31040;51.622;10.420;2024-02-15T01:58:42;15.73;;;10.40;;
45296;SDS011;31040;51.622;10.420;2024-02-15T02:01:10;12.13;;;8.60;;
45296;SDS011;31040;51.622;10.420;2024-02-15T02:03:39;11.73;;;9.70;;
45296;SDS011;31040;51.622;10.420;2024-02-15T02:06:06;13.13;;;9.75;;
45296;SDS011;31040;51.622;10.420;2024-02-15T02:08:35;14.15;;;9.98;;
45296;SDS011;31040;51.622;10.420;2024-02-15T02:11:03;12.43;;;8.75;;
45296;SDS011;31040;51.622;10.420;2024-02-15T02:13:30;11.43;;;8.65;;
45296;SDS011;31040;51.622;10.420;2024-02-15T02:15:58;9.52;;;8.32;;
45296;SDS011;31040;51.622;10.420;2024-02-15T02:18:26;12.00;;;8.85;;
45296;SDS011;31040;51.622;10.420;2024-02-15T02:20:54;9.68;;;8.00;;
45296;SDS011;31040;51.622;10.420;2024-02-15T02:23:22;9.95;;;7.82;;
45296;SDS011;31040;51.622;10.420;2024-02-15T02:25:53;10.32;;;8.10;;
45296;SDS011;31040;51.622;10.420;2024-02-15T02:28:21;11.10;;;8.20;;
45296;SDS011;31040;51.622;10.420;2024-02-15T02:30:49;9.38;;;7.32;;
45296;SDS011;31040;51.622;10.420;2024-02-15T02:33:17;10.45;;;8.25;;
45296;SDS011;31040;51.622;10.420;2024-02-15T02:35:46;10.15;;;7.97;;
45296;SDS011;31040;51.622;10.420;2024-02-15T02:38:15;10.80;;;8.10;;
45296;SDS011;31040;51.622;10.420;2024-02-15T02:40:42;12.95;;;7.40;;
45296;SDS011;31040;51.622;10.420;2024-02-15T02:43:10;11.13;;;7.25;;
45296;SDS011;31040;51.622;10.420;2024-02-15T02:45:38;11.45;;;8.38;;
45296;SDS011;31040;51.622;10.420;2024-02-15T02:48:05;10.60;;;7.65;;
45296;SDS011;31040;51.622;10.420;2024-02-15T02:50:33;8.98;;;7.20;;
45296;SDS011;31040;51.622;10.420;2024-02-15T02:53:01;11.93;;;8.38;;
45296;SDS011;31040;51.622;10.420;2024-02-15T02:55:29;11.40;;;7.60;;
45296;SDS011;31040;51.622;10.420;2024-02-15T02:57:57;11.90;;;7.70;;
45296;SDS011;31040;51.622;10.420;2024-02-15T03:00:24;11.13;;;7.65;;
45296;SDS011;31040;51.622;10.420;2024-02-15T03:02:54;10.27;;;7.40;;
45296;SDS011;31040;51.622;10.420;2024-02-15T03:05:23;11.07;;;8.13;;
45296;SDS011;31040;51.622;10.420;2024-02-15T03:07:51;12.98;;;7.93;;
45296;SDS011;31040;51.622;10.420;2024-02-15T03:10:18;11.73;;;7.55;;
45296;SDS011;31040;51.622;10.420;2024-02-15T03:12:46;13.45;;;7.45;;
45296;SDS011;31040;51.622;10.420;2024-02-15T03:15:15;10.73;;;7.88;;
45296;SDS011;31040;51.622;10.420;2024-02-15T03:17:46;11.02;;;7.38;;
45296;SDS011;31040;51.622;10.420;2024-02-15T03:20:14;8.15;;;6.82;;
45296;SDS011;31040;51.622;10.420;2024-02-15T03:25:22;9.27;;;6.47;;
45296;SDS011;31040;51.622;10.420;2024-02-15T03:27:51;10.05;;;7.93;;
45296;SDS011;31040;51.622;10.420;2024-02-15T03:30:19;9.07;;;6.55;;
45296;SDS011;31040;51.622;10.420;2024-02-15T03:32:47;7.72;;;6.55;;
45296;SDS011;31040;51.622;10.420;2024-02-15T03:35:18;8.18;;;6.38;;
45296;SDS011;31040;51.622;10.420;2024-02-15T03:37:46;9.63;;;7.32;;
45296;SDS011;31040;51.622;10.420;2024-02-15T03:40:13;8.70;;;6.72;;
45296;SDS011;31040;51.622;10.420;2024-02-15T03:42:41;10.50;;;7.40;;
45296;SDS011;31040;51.622;10.420;2024-02-15T03:45:08;9.90;;;6.93;;
45296;SDS011;31040;51.622;10.420;2024-02-15T03:47:37;9.55;;;6.88;;
45296;SDS011;31040;51.622;10.420;2024-02-15T03:50:05;10.80;;;7.10;;
45296;SDS011;31040;51.622;10.420;2024-02-15T03:52:34;8.85;;;7.07;;
45296;SDS011;31040;51.622;10.420;2024-02-15T03:55:02;8.77;;;6.68;;
45296;SDS011;31040;51.622;10.420;2024-02-15T03:57:29;8.70;;;6.28;;
45296;SDS011;31040;51.622;10.420;2024-02-15T03:59:57;7.68;;;5.82;;
45296;SDS011;31040;51.622;10.420;2024-02-15T04:02:24;9.07;;;6.30;;
45296;SDS011;31040;51.622;10.420;2024-02-15T04:04:56;8.63;;;6.38;;
45296;SDS011;31040;51.622;10.420;2024-02-15T04:07:24;10.50;;;7.20;;
45296;SDS011;31040;51.622;10.420;2024-02-15T04:09:55;10.23;;;6.50;;
45296;SDS011;31040;51.622;10.420;2024-02-15T04:12:22;8.00;;;6.07;;
45296;SDS011;31040;51.622;10.420;2024-02-15T04:14:49;8.75;;;6.60;;
45296;SDS011;31040;51.622;10.420;2024-02-15T04:17:17;7.80;;;5.38;;
45296;SDS011;31040;51.622;10.420;2024-02-15T04:19:48;8.15;;;6.00;;
45296;SDS011;31040;51.622;10.420;2024-02-15T04:22:20;7.57;;;5.22;;
45296;SDS011;31040;51.622;10.420;2024-02-15T04:24:47;8.88;;;6.88;;
45296;SDS011;31040;51.622;10.420;2024-02-15T04:27:16;9.18;;;6.15;;
45296;SDS011;31040;51.622;10.420;2024-02-15T04:29:47;7.68;;;6.00;;
45296;SDS011;31040;51.622;10.420;2024-02-15T04:32:16;8.05;;;5.78;;
45296;SDS011;31040;51.622;10.420;2024-02-15T04:34:45;8.32;;;6.20;;
45296;SDS011;31040;51.622;10.420;2024-02-15T04:37:13;9.07;;;6.55;;
45296;SDS011;31040;51.622;10.420;2024-02-15T04:39:41;7.70;;;5.25;;
45296;SDS011;31040;51.622;10.420;2024-02-15T04:42:08;9.25;;;5.90;;
45296;SDS011;31040;51.622;10.420;2024-02-15T04:44:38;9.32;;;6.50;;
45296;SDS011;31040;51.622;10.420;2024-02-15T04:47:06;7.47;;;5.97;;
45296;SDS011;31040;51.622;10.420;2024-02-15T04:49:33;7.95;;;6.00;;
45296;SDS011;31040;51.622;10.420;2024-02-15T04:52:04;8.55;;;5.78;;
45296;SDS011;31040;51.622;10.420;2024-02-15T04:54:33;9.23;;;6.00;;
45296;SDS011;31040;51.622;10.420;2024-02-15T04:57:00;8.05;;;6.15;;
45296;SDS011;31040;51.622;10.420;2024-02-15T04:59:27;9.32;;;6.03;;
45296;SDS011;31040;51.622;10.420;2024-02-15T05:01:55;8.75;;;6.00;;
45296;SDS011;31040;51.622;10.420;2024-02-15T05:04:23;6.95;;;4.80;;
45296;SDS011;31040;51.622;10.420;2024-02-15T05:06:51;6.70;;;4.85;;
45296;SDS011;31040;51.622;10.420;2024-02-15T05:09:19;8.52;;;5.95;;
45296;SDS011;31040;51.622;10.420;2024-02-15T05:11:49;9.13;;;6.00;;
45296;SDS011;31040;51.622;10.420;2024-02-15T05:14:16;7.00;;;5.13;;
45296;SDS011;31040;51.622;10.420;2024-02-15T05:16:46;7.97;;;5.78;;
45296;SDS011;31040;51.622;10.420;2024-02-15T05:19:15;7.95;;;5.78;;
45296;SDS011;31040;51.622;10.420;2024-02-15T05:21:43;7.95;;;5.40;;
45296;SDS011;31040;51.622;10.420;2024-02-15T05:24:15;9.10;;;6.70;;
45296;SDS011;31040;51.622;10.420;2024-02-15T05:26:44;9.13;;;5.53;;
45296;SDS011;31040;51.622;10.420;2024-02-15T05:29:21;7.18;;;5.03;;
45296;SDS011;31040;51.622;10.420;2024-02-15T05:31:49;9.80;;;6.05;;
45296;SDS011;31040;51.622;10.420;2024-02-15T05:34:18;7.80;;;5.50;;
45296;SDS011;31040;51.622;10.420;2024-02-15T05:36:45;7.60;;;5.05;;
45296;SDS011;31040;51.622;10.420;2024-02-15T05:39:14;8.45;;;5.65;;
45296;SDS011;31040;51.622;10.420;2024-02-15T05:41:42;9.65;;;5.97;;
45296;SDS011;31040;51.622;10.420;2024-02-15T05:44:09;7.47;;;5.47;;
45296;SDS011;31040;51.622;10.420;2024-02-15T05:46:37;11.50;;;6.60;;
45296;SDS011;31040;51.622;10.420;2024-02-15T05:49:06;12.98;;;8.15;;
45296;SDS011;31040;51.622;10.420;2024-02-15T05:51:35;12.82;;;7.95;;
45296;SDS011;31040;51.622;10.420;2024-02-15T05:54:02;12.27;;;7.47;;
45296;SDS011;31040;51.622;10.420;2024-02-15T05:56:30;11.50;;;7.70;;
45296;SDS011;31040;51.622;10.420;2024-02-15T05:58:57;8.52;;;6.72;;
45296;SDS011;31040;51.622;10.420;2024-02-15T06:01:25;10.68;;;6.90;;
45296;SDS011;31040;51.622;10.420;2024-02-15T06:03:52;12.88;;;8.77;;
45296;SDS011;31040;51.622;10.420;2024-02-15T06:06:22;10.82;;;7.78;;
45296;SDS011;31040;51.622;10.420;2024-02-15T06:08:49;11.15;;;7.10;;
45296;SDS011;31040;51.622;10.420;2024-02-15T06:11:20;12.57;;;7.97;;
45296;SDS011;31040;51.622;10.420;2024-02-15T06:13:48;10.95;;;7.80;;
45296;SDS011;31040;51.622;10.420;2024-02-15T06:16:15;12.18;;;8.13;;
45296;SDS011;31040;51.622;10.420;2024-02-15T06:18:43;11.00;;;8.10;;
45296;SDS011;31040;51.622;10.420;2024-02-15T06:21:10;10.20;;;7.22;;
45296;SDS011;31040;51.622;10.420;2024-02-15T06:23:38;7.97;;;6.32;;
45296;SDS011;31040;51.622;10.420;2024-02-15T06:26:05;10.70;;;7.78;;
45296;SDS011;31040;51.622;10.420;2024-02-15T06:28:33;12.93;;;8.90;;
45296;SDS011;31040;51.622;10.420;2024-02-15T06:31:18;10.32;;;7.80;;
45296;SDS011;31040;51.622;10.420;2024-02-15T06:34:05;9.80;;;7.53;;
45296;SDS011;31040;51.622;10.420;2024-02-15T06:36:55;10.50;;;8.50;;
45296;SDS011;31040;51.622;10.420;2024-02-15T06:39:41;9.30;;;6.22;;
45296;SDS011;31040;51.622;10.420;2024-02-15T06:42:15;8.88;;;6.07;;
45296;SDS011;31040;51.622;10.420;2024-02-15T06:44:47;11.15;;;5.97;;
45296;SDS011;31040;51.622;10.420;2024-02-15T06:47:15;8.40;;;5.57;;
45296;SDS011;31040;51.622;10.420;2024-02-15T06:49:45;10.60;;;6.70;;
45296;SDS011;31040;51.622;10.420;2024-02-15T06:52:13;11.57;;;7.20;;
45296;SDS011;31040;51.622;10.420;2024-02-15T06:54:41;9.70;;;5.65;;
45296;SDS011;31040;51.622;10.420;2024-02-15T06:57:09;8.77;;;5.75;;
45296;SDS011;31040;51.622;10.420;2024-02-15T06:59:36;31.27;;;21.27;;
45296;SDS011;31040;51.622;10.420;2024-02-15T07:02:06;44.25;;;27.65;;
45296;SDS011;31040;51.622;10.420;2024-02-15T07:04:34;54.53;;;35.45;;
45296;SDS011;31040;51.622;10.420;2024-02-15T07:07:03;58.15;;;37.25;;
45296;SDS011;31040;51.622;10.420;2024-02-15T07:09:31;43.80;;;29.67;;
45296;SDS011;31040;51.622;10.420;2024-02-15T07:11:59;30.10;;;22.58;;
45296;SDS011;31040;51.622;10.420;2024-02-15T07:14:26;29.40;;;19.88;;
45296;SDS011;31040;51.622;10.420;2024-02-15T07:16:54;37.92;;;24.40;;
45296;SDS011;31040;51.622;10.420;2024-02-15T07:19:25;27.42;;;18.65;;
45296;SDS011;31040;51.622;10.420;2024-02-15T07:21:54;17.58;;;12.98;;
45296;SDS011;31040;51.622;10.420;2024-02-15T07:24:23;17.10;;;12.18;;
45296;SDS011;31040;51.622;10.420;2024-02-15T07:26:54;17.20;;;12.25;;
45296;SDS011;31040;51.622;10.420;2024-02-15T07:29:24;15.00;;;11.50;;
45296;SDS011;31040;51.622;10.420;2024-02-15T07:31:52;13.70;;;9.82;;
45296;SDS011;31040;51.622;10.420;2024-02-15T07:34:20;13.35;;;9.32;;
45296;SDS011;31040;51.622;10.420;2024-02-15T07:36:48;14.30;;;11.05;;
45296;SDS011;31040;51.622;10.420;2024-02-15T07:39:15;17.25;;;11.38;;
45296;SDS011;31040;51.622;10.420;2024-02-15T07:41:53;13.73;;;9.38;;
45296;SDS011;31040;51.622;10.420;2024-02-15T07:44:21;13.07;;;9.73;;
45296;SDS011;31040;51.622;10.420;2024-02-15T07:46:48;15.23;;;10.45;;
45296;SDS011;31040;51.622;10.420;2024-02-15T07:49:17;11.82;;;8.98;;
45296;SDS011;31040;51.622;10.420;2024-02-15T07:51:44;11.10;;;9.02;;
45296;SDS011;31040;51.622;10.420;2024-02-15T07:54:19;11.30;;;8.38;;
45296;SDS011;31040;51.622;10.420;2024-02-15T07:56:48;9.95;;;7.75;;
45296;SDS011;31040;51.622;10.420;2024-02-15T07:59:15;7.82;;;6.50;;
45296;SDS011;31040;51.622;10.420;2024-02-15T08:01:43;7.50;;;6.03;;
45296;SDS011;31040;51.622;10.420;2024-02-15T08:04:12;11.57;;;6.70;;
45296;SDS011;31040;51.622;10.420;2024-02-15T08:06:43;9.15;;;6.53;;
45296;SDS011;31040;51.622;10.420;2024-02-15T08:09:10;8.38;;;6.28;;
45296;SDS011;31040;51.622;10.420;2024-02-15T08:11:40;7.45;;;6.32;;
45296;SDS011;31040;51.622;10.420;2024-02-15T08:14:08;9.60;;;6.35;;
45296;SDS011;31040;51.622;10.420;2024-02-15T08:16:39;11.00;;;6.35;;
45296;SDS011;31040;51.622;10.420;2024-02-15T08:19:08;8.70;;;6.88;;
45296;SDS011;31040;51.622;10.420;2024-02-15T08:21:36;11.07;;;8.02;;
45296;SDS011;31040;51.622;10.420;2024-02-15T08:24:05;8.88;;;6.90;;
45296;SDS011;31040;51.622;10.420;2024-02-15T08:26:33;10.00;;;8.05;;
45296;SDS011;31040;51.622;10.420;2024-02-15T08:29:02;10.60;;;7.70;;
45296;SDS011;31040;51.622;10.420;2024-02-15T08:31:32;14.93;;;10.77;;
45296;SDS011;31040;51.622;10.420;2024-02-15T08:34:03;18.02;;;12.05;;
45296;SDS011;31040;51.622;10.420;2024-02-15T08:36:36;18.70;;;12.93;;
45296;SDS011;31040;51.622;10.420;2024-02-15T08:39:06;29.38;;;18.63;;
45296;SDS011;31040;51.622;10.420;2024-02-15T08:41:38;32.60;;;23.70;;
45296;SDS011;31040;51.622;10.420;2024-02-15T08:44:06;37.70;;;26.42;;
45296;SDS011;31040;51.622;10.420;2024-02-15T08:46:38;36.90;;;25.75;;
45296;SDS011;31040;51.622;10.420;2024-02-15T08:49:05;27.77;;;21.77;;
45296;SDS011;31040;51.622;10.420;2024-02-15T08:51:33;23.35;;;19.10;;
45296;SDS011;31040;51.622;10.420;2024-02-15T08:54:00;26.80;;;16.20;;
45296;SDS011;31040;51.622;10.420;2024-02-15T08:56:28;21.33;;;15.30;;
45296;SDS011;31040;51.622;10.420;2024-02-15T08:58:55;16.95;;;14.07;;
45296;SDS011;31040;51.622;10.420;2024-02-15T09:01:28;19.38;;;13.95;;
45296;SDS011;31040;51.622;10.420;2024-02-15T09:03:57;19.10;;;14.40;;
45296;SDS011;31040;51.622;10.420;2024-02-15T09:06:25;16.08;;;13.05;;
45296;SDS011;31040;51.622;10.420;2024-02-15T09:08:53;14.63;;;12.50;;
45296;SDS011;31040;51.622;10.420;2024-02-15T09:11:21;12.35;;;10.85;;
45296;SDS011;31040;51.622;10.420;2024-02-15T09:13:49;12.32;;;9.85;;
45296;SDS011;31040;51.622;10.420;2024-02-15T09:16:18;11.15;;;8.93;;
45296;SDS011;31040;51.622;10.420;2024-02-15T09:18:48;10.70;;;8.70;;
45296;SDS011;31040;51.622;10.420;2024-02-15T09:21:15;11.23;;;8.25;;
45296;SDS011;31040;51.622;10.420;2024-02-15T09:23:43;13.60;;;9.85;;
45296;SDS011;31040;51.622;10.420;2024-02-15T09:26:11;11.80;;;8.93;;
45296;SDS011;31040;51.622;10.420;2024-02-15T09:28:39;11.30;;;9.07;;
45296;SDS011;31040;51.622;10.420;2024-02-15T09:31:07;12.70;;;8.60;;
45296;SDS011;31040;51.622;10.420;2024-02-15T09:33:34;10.27;;;8.07;;
45296;SDS011;31040;51.622;10.420;2024-02-15T09:36:03;19.80;;;10.05;;
45296;SDS011;31040;51.622;10.420;2024-02-15T09:38:30;10.05;;;8.55;;
45296;SDS011;31040;51.622;10.420;2024-02-15T09:40:58;9.45;;;8.55;;
45296;SDS011;31040;51.622;10.420;2024-02-15T09:43:25;11.13;;;8.27;;
45296;SDS011;31040;51.622;10.420;2024-02-15T09:45:55;10.63;;;8.02;;
45296;SDS011;31040;51.622;10.420;2024-02-15T09:48:25;11.80;;;9.02;;
45296;SDS011;31040;51.622;10.420;2024-02-15T09:50:54;9.55;;;8.52;;
45296;SDS011;31040;51.622;10.420;2024-02-15T09:53:23;11.38;;;8.85;;
45296;SDS011;31040;51.622;10.420;2024-02-15T09:55:55;16.63;;;9.35;;
45296;SDS011;31040;51.622;10.420;2024-02-15T09:58:30;9.45;;;8.30;;
45296;SDS011;31040;51.622;10.420;2024-02-15T10:01:04;10.98;;;7.80;;
45296;SDS011;31040;51.622;10.420;2024-02-15T10:03:37;8.73;;;6.95;;
45296;SDS011;31040;51.622;10.420;2024-02-15T10:06:07;9.20;;;7.28;;
45296;SDS011;31040;51.622;10.420;2024-02-15T10:08:35;9.32;;;6.97;;
45296;SDS011;31040;51.622;10.420;2024-02-15T10:11:07;7.63;;;5.88;;
45296;SDS011;31040;51.622;10.420;2024-02-15T10:13:36;8.30;;;5.57;;
45296;SDS011;31040;51.622;10.420;2024-02-15T10:16:13;7.25;;;5.78;;
45296;SDS011;31040;51.622;10.420;2024-02-15T10:18:41;5.75;;;5.03;;
45296;SDS011;31040;51.622;10.420;2024-02-15T10:21:09;6.45;;;5.07;;
45296;SDS011;31040;51.622;10.420;2024-02-15T10:23:37;6.10;;;5.32;;
45296;SDS011;31040;51.622;10.420;2024-02-15T10:26:39;6.40;;;5.18;;
45296;SDS011;31040;51.622;10.420;2024-02-15T10:29:04;6.85;;;5.78;;
45296;SDS011;31040;51.622;10.420;2024-02-15T10:31:36;7.55;;;4.18;;
45296;SDS011;31040;51.622;10.420;2024-02-15T10:34:04;8.05;;;5.20;;
45296;SDS011;31040;51.622;10.420;2024-02-15T10:36:32;10.98;;;6.05;;
45296;SDS011;31040;51.622;10.420;2024-02-15T10:39:10;6.13;;;4.65;;
45296;SDS011;31040;51.622;10.420;2024-02-15T10:41:38;7.13;;;4.95;;
45296;SDS011;31040;51.622;10.420;2024-02-15T10:44:06;7.13;;;4.95;;
45296;SDS011;31040;51.622;10.420;2024-02-15T10:46:34;6.65;;;4.32;;
45296;SDS011;31040;51.622;10.420;2024-02-15T10:49:02;4.20;;;3.80;;
45296;SDS011;31040;51.622;10.420;2024-02-15T10:51:30;6.70;;;5.00;;
45296;SDS011;31040;51.622;10.420;2024-02-15T10:54:00;6.05;;;4.90;;
45296;SDS011;31040;51.622;10.420;2024-02-15T10:56:34;4.78;;;4.28;;
45296;SDS011;31040;51.622;10.420;2024-02-15T10:59:08;4.70;;;4.28;;
45296;SDS011;31040;51.622;10.420;2024-02-15T11:01:40;6.05;;;3.80;;
45296;SDS011;31040;51.622;10.420;2024-02-15T11:04:09;4.95;;;4.40;;
45296;SDS011;31040;51.622;10.420;2024-02-15T11:06:41;5.95;;;4.43;;
45296;SDS011;31040;51.622;10.420;2024-02-15T11:09:10;8.68;;;4.25;;
45296;SDS011;31040;51.622;10.420;2024-02-15T11:11:40;5.65;;;3.95;;
45296;SDS011;31040;51.622;10.420;2024-02-15T11:14:24;8.23;;;4.45;;
45296;SDS011;31040;51.622;10.420;2024-02-15T11:16:52;4.65;;;3.95;;
45296;SDS011;31040;51.622;10.420;2024-02-15T11:22:09;3.58;;;3.28;;
45296;SDS011;31040;51.622;10.420;2024-02-15T11:24:38;3.20;;;2.85;;
45296;SDS011;31040;51.622;10.420;2024-02-15T11:27:12;4.97;;;3.42;;
45296;SDS011;31040;51.622;10.420;2024-02-15T11:40:16;4.38;;;4.00;;
45296;SDS011;31040;51.622;10.420;2024-02-15T11:42:44;5.38;;;3.90;;
45296;SDS011;31040;51.622;10.420;2024-02-15T11:45:12;4.30;;;3.85;;
45296;SDS011;31040;51.622;10.420;2024-02-15T11:47:40;3.83;;;2.95;;
45296;SDS011;31040;51.622;10.420;2024-02-15T11:50:11;3.60;;;3.30;;
45296;SDS011;31040;51.622;10.420;2024-02-15T11:52:41;4.35;;;3.22;;
45296;SDS011;31040;51.622;10.420;2024-02-15T11:55:09;3.53;;;2.67;;
45296;SDS011;31040;51.622;10.420;2024-02-15T11:57:37;2.97;;;2.67;;
45296;SDS011;31040;51.622;10.420;2024-02-15T12:00:21;2.97;;;2.67;;
45296;SDS011;31040;51.622;10.420;2024-02-15T12:03:07;6.40;;;3.58;;
45296;SDS011;31040;51.622;10.420;2024-02-15T12:05:54;4.32;;;2.70;;
45296;SDS011;31040;51.622;10.420;2024-02-15T12:08:44;3.78;;;3.05;;
45296;SDS011;31040;51.622;10.420;2024-02-15T12:11:30;3.53;;;3.13;;
45296;SDS011;31040;51.622;10.420;2024-02-15T12:14:16;5.90;;;4.22;;
45296;SDS011;31040;51.622;10.420;2024-02-15T12:17:03;3.97;;;3.38;;
45296;SDS011;31040;51.622;10.420;2024-02-15T12:19:50;5.97;;;4.70;;
45296;SDS011;31040;51.622;10.420;2024-02-15T12:22:21;4.15;;;2.92;;
45296;SDS011;31040;51.622;10.420;2024-02-15T12:24:56;2.45;;;2.20;;
45296;SDS011;31040;51.622;10.420;2024-02-15T12:27:24;3.80;;;2.65;;
45296;SDS011;31040;51.622;10.420;2024-02-15T12:29:54;3.35;;;2.40;;
45296;SDS011;31040;51.622;10.420;2024-02-15T12:32:23;6.80;;;2.45;;
45296;SDS011;31040;51.622;10.420;2024-02-15T12:34:52;4.50;;;2.00;;
45296;SDS011;31040;51.622;10.420;2024-02-15T12:37:22;4.05;;;2.35;;
45296;SDS011;31040;51.622;10.420;2024-02-15T12:39:52;4.75;;;3.05;;
45296;SDS011;31040;51.622;10.420;2024-02-15T12:42:20;2.90;;;1.92;;
45296;SDS011;31040;51.622;10.420;2024-02-15T12:44:49;5.85;;;2.83;;
45296;SDS011;31040;51.622;10.420;2024-02-15T12:47:20;3.33;;;2.58;;
45296;SDS011;31040;51.622;10.420;2024-02-15T12:49:51;4.70;;;2.90;;
45296;SDS011;31040;51.622;10.420;2024-02-15T12:52:35;3.65;;;2.72;;
45296;SDS011;31040;51.622;10.420;2024-02-15T12:55:21;2.85;;;2.53;;
45296;SDS011;31040;51.622;10.420;2024-02-15T12:57:51;3.10;;;2.80;;
45296;SDS011;31040;51.622;10.420;2024-02-15T13:00:26;5.20;;;3.10;;
45296;SDS011;31040;51.622;10.420;2024-02-15T13:02:59;5.43;;;3.35;;
45296;SDS011;31040;51.622;10.420;2024-02-15T13:05:30;5.10;;;3.17;;
45296;SDS011;31040;51.622;10.420;2024-02-15T13:07:59;4.95;;;2.88;;
45296;SDS011;31040;51.622;10.420;2024-02-15T13:10:28;4.28;;;2.70;;
45296;SDS011;31040;51.622;10.420;2024-02-15T13:12:58;4.60;;;2.67;;
45296;SDS011;31040;51.622;10.420;2024-02-15T13:15:25;3.80;;;3.42;;
45296;SDS011;31040;51.622;10.420;2024-02-15T13:18:00;5.78;;;3.03;;
45296;SDS011;31040;51.622;10.420;2024-02-15T13:20:32;5.35;;;3.00;;
45296;SDS011;31040;51.622;10.420;2024-02-15T13:23:01;3.33;;;2.33;;
45296;SDS011;31040;51.622;10.420;2024-02-15T13:25:35;5.15;;;2.28;;
45296;SDS011;31040;51.622;10.420;2024-02-15T13:28:04;4.35;;;3.13;;
45296;SDS011;31040;51.622;10.420;2024-02-15T13:30:32;7.78;;;3.50;;
45296;SDS011;31040;51.622;10.420;2024-02-15T13:32:59;4.60;;;3.00;;
45296;SDS011;31040;51.622;10.420;2024-02-15T13:35:28;4.22;;;3.00;;
45296;SDS011;31040;51.622;10.420;2024-02-15T13:37:56;5.03;;;2.78;;
45296;SDS011;31040;51.622;10.420;2024-02-15T13:40:27;6.97;;;3.75;;
45296;SDS011;31040;51.622;10.420;2024-02-15T13:42:57;4.18;;;3.13;;
45296;SDS011;31040;51.622;10.420;2024-02-15T13:45:29;4.57;;;3.30;;
45296;SDS011;31040;51.622;10.420;2024-02-15T13:48:00;6.10;;;3.08;;
45296;SDS011;31040;51.622;10.420;2024-02-15T13:50:28;4.43;;;2.72;;
45296;SDS011;31040;51.622;10.420;2024-02-15T13:52:56;3.50;;;2.50;;
45296;SDS011;31040;51.622;10.420;2024-02-15T13:55:25;4.85;;;2.80;;
45296;SDS011;31040;51.622;10.420;2024-02-15T13:57:53;3.53;;;3.03;;
45296;SDS011;31040;51.622;10.420;2024-02-15T14:00:23;4.25;;;2.90;;
45296;SDS011;31040;51.622;10.420;2024-02-15T14:02:57;3.88;;;2.85;;
45296;SDS011;31040;51.622;10.420;2024-02-15T14:05:26;4.70;;;3.40;;
45296;SDS011;31040;51.622;10.420;2024-02-15T14:07:56;5.95;;;3.30;;
45296;SDS011;31040;51.622;10.420;2024-02-15T14:10:24;4.20;;;3.50;;
45296;SDS011;31040;51.622;10.420;2024-02-15T14:12:53;5.40;;;3.97;;
45296;SDS011;31040;51.622;10.420;2024-02-15T14:15:38;4.68;;;4.18;;
45296;SDS011;31040;51.622;10.420;2024-02-15T14:18:08;5.05;;;4.50;;
45296;SDS011;31040;51.622;10.420;2024-02-15T14:20:46;4.50;;;4.07;;
45296;SDS011;31040;51.622;10.420;2024-02-15T14:23:14;4.80;;;4.07;;
45296;SDS011;31040;51.622;10.420;2024-02-15T14:25:42;6.93;;;4.65;;
45296;SDS011;31040;51.622;10.420;2024-02-15T14:28:12;6.03;;;4.57;;
45296;SDS011;31040;51.622;10.420;2024-02-15T14:30:41;5.07;;;4.43;;
45296;SDS011;31040;51.622;10.420;2024-02-15T14:33:28;7.07;;;4.85;;
45296;SDS011;31040;51.622;10.420;2024-02-15T14:36:00;5.60;;;3.30;;
45296;SDS011;31040;51.622;10.420;2024-02-15T14:38:28;3.92;;;3.45;;
45296;SDS011;31040;51.622;10.420;2024-02-15T14:40:56;4.70;;;3.38;;
45296;SDS011;31040;51.622;10.420;2024-02-15T14:43:26;4.28;;;3.88;;
45296;SDS011;31040;51.622;10.420;2024-02-15T14:45:55;16.15;;;12.68;;
45296;SDS011;31040;51.622;10.420;2024-02-15T14:48:25;6.03;;;5.18;;
45296;SDS011;31040;51.622;10.420;2024-02-15T14:50:53;30.17;;;21.80;;
45296;SDS011;31040;51.622;10.420;2024-02-15T14:53:25;42.13;;;29.05;;
45296;SDS011;31040;51.622;10.420;2024-02-15T14:55:56;11.32;;;8.48;;